Time;durP1;ratioP1;P1;durP2;ratioP2;P2;SDS_P1;SDS_P2;PMS_P1;PMS_P2;Temp;Humidity;BMP_temperature;BMP_pressure;BME280_temperature;BME280_humidity;BME280_pressure;Samples;Min_cycle;Max_cycle;Signal;HPM_P1;HPM_P2
2022/06/08 00:00:42;;;;;;;;;;;;;;;;;;5092994;28;836;-67
2022/06/08 00:03:09;;;;;;;;;;;;;;;;;;5092673;28;1198;-66
2022/06/08 00:05:34;;;;;;;;;;;;;;;;;;5092823;28;853;-67
2022/06/08 00:08:00;;;;;;;;;;;;;;;;;;5092083;28;975;-66
2022/06/08 00:10:25;;;;;;;;;;;;;;;;;;5092934;28;858;-66
2022/06/08 00:12:50;;;;;;;;;;;;;;;;;;5091897;28;837;-66
2022/06/08 00:15:16;;;;;;;;;;;;;;;;;;5090268;28;1989;-67
2022/06/08 00:17:44;;;;;;;;;;;;;;;;;;5092010;28;1084;-67
2022/06/08 00:20:10;;;;;;;;;;;;;;;;;;5090417;28;1303;-67
2022/06/08 00:22:36;;;;;;;;;;;;;;;;;;5091657;28;905;-66
2022/06/08 00:25:02;;;;;;;;;;;;;;;;;;5091457;28;765;-67
2022/06/08 00:27:27;;;;;;;;;;;;;;;;;;5092020;28;907;-67
2022/06/08 00:29:53;;;;;;;;;;;;;;;;;;5091300;28;1002;-67
2022/06/08 00:32:18;;;;;;;;;;;;;;;;;;5091461;28;845;-67
2022/06/08 00:34:44;;;;;;;;;;;;;;;;;;5089832;28;1306;-67
2022/06/08 00:37:09;;;;;;;;;;;;;;;;;;5091745;28;1969;-67
2022/06/08 00:39:34;;;;;;;;;;;;;;;;;;5092263;28;820;-67
2022/06/08 00:42:02;;;;;;;;;;;;;;;;;;5092005;28;896;-67
2022/06/08 00:44:36;;;;;;;;;;;;;;;;;;5091626;28;845;-67
2022/06/08 00:47:03;;;;;;;;;;;;;;;;;;5091191;28;853;-67
2022/06/08 00:49:30;;;;;;;;;;;;;;;;;;5090303;28;1155;-67
2022/06/08 00:51:57;;;;;;;;;;;;;;;;;;5091803;28;883;-67
2022/06/08 00:54:25;;;;;;;;;;;;;;;;;;5090732;28;1334;-66
2022/06/08 00:56:54;;;;;;;;;;;;;;;;;;5091412;28;1961;-68
2022/06/08 00:59:20;;;;;;;;;;;;;;;;;;5091581;28;1058;-67
2022/06/08 01:01:45;;;;;;;;;;;;;;;;;;5091561;28;840;-67
2022/06/08 01:04:15;;;;;;;;;;;;;;;;;;5091223;28;1073;-67
2022/06/08 01:06:42;;;;;;;;;;;;;;;;;;5091641;28;928;-67
2022/06/08 01:09:15;;;;;;;;;;;;;;;;;;5090042;28;1251;-68
2022/06/08 01:11:43;;;;;;;;;;;;;;;;;;5091500;28;925;-67
2022/06/08 01:14:11;;;;;;;;;;;;;;;;;;5089954;28;1218;-67
2022/06/08 01:16:38;;;;;;;;;;;;;;;;;;5089949;28;1906;-66
2022/06/08 01:19:04;;;;;;;;;;;;;;;;;;5090087;28;1194;-67
2022/06/08 01:21:29;;;;;;;;;;;;;;;;;;5091334;28;1139;-67
2022/06/08 01:24:00;;;;;;;;;;;;;;;;;;5099663;28;1253;-67
2022/06/08 01:26:34;;;;;;;;;;;;;;;;;;5107666;28;1119;-67
2022/06/08 01:29:08;;;;;;;;;;;;;;;;;;5095064;28;935;-67
2022/06/08 01:31:36;;;;;;;;;;;;;;;;;;5095380;28;853;-67
2022/06/08 01:34:22;;;;;;;;;;;;;;;;;;5095041;28;908;-67
2022/06/08 01:37:09;;;;;;;;;;;;;;;;;;5094843;28;1902;-67
2022/06/08 01:39:43;;;;;;;;;;;;;;;;;;5095369;28;864;-67
2022/06/08 01:42:44;;;;;;;;;;;;;;;;;;5095004;28;995;-68
2022/06/08 01:45:33;;;;;;;;;;;;;;;;;;5052070;28;1293;-66
2022/06/08 01:48:01;;;;;;;;;;;;;;;;;;5092187;28;949;-66
2022/06/08 01:50:46;;;;;;;;;;;;;;;;;;5093230;28;1325;-66
2022/06/08 01:53:11;;;;;;;;;;;;;;;;;;5086674;28;1111;-66
2022/06/08 01:55:48;;;;;;;;;;;;;;;;;;5094771;28;1965;-66
2022/06/08 01:58:19;;;;;;;;;;;;;;;;;;5094388;28;884;-66
2022/06/08 02:01:04;;;;;;;;;;;;;;;;;;5093224;28;1198;-67
2022/06/08 02:03:41;;;;;;;;;;;;;;;;;;5093851;28;1162;-67
2022/06/08 02:06:11;;;;;;;;;;;;;;;;;;5092710;28;1187;-66
2022/06/08 02:08:40;;;;;;;;;;;;;;;;;;5092918;28;1092;-67
2022/06/08 02:11:05;;;;;;;;;;;;;;;;;;5094440;28;1013;-66
2022/06/08 02:13:43;;;;;;;;;;;;;;;;;;5094472;28;852;-67
2022/06/08 02:16:16;;;;;;;;;;;;;;;;;;5094640;28;1897;-66
2022/06/08 02:18:47;;;;;;;;;;;;;;;;;;5094874;28;904;-66
2022/06/08 02:21:19;;;;;;;;;;;;;;;;;;5093434;28;1308;-66
2022/06/08 02:23:59;;;;;;;;;;;;;;;;;;5094100;28;793;-66
2022/06/08 02:26:29;;;;;;;;;;;;;;;;;;5094487;28;1018;-66
2022/06/08 02:28:58;;;;;;;;;;;;;;;;;;5092940;28;1431;-67
2022/06/08 02:31:26;;;;;;;;;;;;;;;;;;5093100;28;1195;-66
2022/06/08 02:36:45;;;;;;;;;;;;;;;;;;5094090;28;1972;-66
2022/06/08 02:39:36;;;;;;;;;;;;;;;;;;5093258;28;1446;-66
2022/06/08 02:42:05;;;;;;;;;;;;;;;;;;5091611;28;1469;-66
2022/06/08 02:44:31;;;;;;;;;;;;;;;;;;5093501;28;911;-66
2022/06/08 02:47:04;;;;;;;;;;;;;;;;;;5092458;28;762;-66
2022/06/08 02:49:32;;;;;;;;;;;;;;;;;;5093692;28;837;-66
2022/06/08 02:52:00;;;;;;;;;;;;;;;;;;5093341;28;1014;-66
2022/06/08 02:54:26;;;;;;;;;;;;;;;;;;5093162;28;837;-66
2022/06/08 02:56:56;;;;;;;;;;;;;;;;;;5091640;28;1894;-66
2022/06/08 02:59:26;;;;;;;;;;;;;;;;;;5091714;28;1416;-65
2022/06/08 03:02:05;;;;;;;;;;;;;;;;;;5091787;28;1166;-66
2022/06/08 03:04:46;;;;;;;;;;;;;;;;;;5091631;28;1180;-66
2022/06/08 03:07:15;;;;;;;;;;;;;;;;;;5093056;28;991;-66
2022/06/08 03:09:41;;;;;;;;;;;;;;;;;;5093183;28;963;-66
2022/06/08 03:12:11;;;;;;;;;;;;;;;;;;5091474;28;986;-66
2022/06/08 03:14:37;;;;;;;;;;;;;;;;;;5091556;28;1438;-66
2022/06/08 03:17:04;;;;;;;;;;;;;;;;;;5091453;28;1995;-66
2022/06/08 03:19:31;;;;;;;;;;;;;;;;;;5092693;28;837;-67
2022/06/08 03:21:56;;;;;;;;;;;;;;;;;;5092924;28;1074;-67
2022/06/08 03:24:22;;;;;;;;;;;;;;;;;;5092994;28;825;-66
2022/06/08 03:26:49;;;;;;;;;;;;;;;;;;5074543;28;1314;-66
2022/06/08 03:29:15;;;;;;;;;;;;;;;;;;5092931;28;888;-66
2022/06/08 03:31:41;;;;;;;;;;;;;;;;;;5091193;28;896;-66
2022/06/08 03:34:06;;;;;;;;;;;;;;;;;;5092623;28;821;-66
2022/06/08 03:36:32;;;;;;;;;;;;;;;;;;5092744;28;1944;-66
2022/06/08 03:38:57;;;;;;;;;;;;;;;;;;5092930;28;877;-67
2022/06/08 03:41:22;;;;;;;;;;;;;;;;;;5092563;28;861;-67
2022/06/08 03:43:47;;;;;;;;;;;;;;;;;;5074549;28;1349;-67
2022/06/08 03:46:13;;;;;;;;;;;;;;;;;;5090298;28;892;-66
2022/06/08 03:48:40;;;;;;;;;;;;;;;;;;5091356;28;1194;-66
2022/06/08 03:51:06;;;;;;;;;;;;;;;;;;5091913;28;1060;-66
2022/06/08 03:53:41;;;;;;;;;;;;;;;;;;5093009;28;841;-67
2022/06/08 03:56:08;;;;;;;;;;;;;;;;;;5093090;28;1962;-67
2022/06/08 03:58:33;;;;;;;;;;;;;;;;;;5091461;28;1349;-67
2022/06/08 04:00:59;;;;;;;;;;;;;;;;;;5091371;28;888;-66
2022/06/08 04:03:24;;;;;;;;;;;;;;;;;;5092875;28;856;-66
2022/06/08 04:05:49;;;;;;;;;;;;;;;;;;5092325;28;904;-66
2022/06/08 04:08:15;;;;;;;;;;;;;;;;;;5092882;28;1038;-67
2022/06/08 04:10:40;;;;;;;;;;;;;;;;;;5092852;28;899;-66
2022/06/08 04:13:05;;;;;;;;;;;;;;;;;;5092495;28;915;-66
2022/06/08 04:15:43;;;;;;;;;;;;;;;;;;5090543;28;1910;-66
2022/06/08 04:18:26;;;;;;;;;;;;;;;;;;5090847;28;1261;-66
2022/06/08 04:20:53;;;;;;;;;;;;;;;;;;5091582;28;953;-66
2022/06/08 04:23:20;;;;;;;;;;;;;;;;;;5091568;28;970;-66
2022/06/08 04:25:46;;;;;;;;;;;;;;;;;;5091447;28;970;-67
2022/06/08 04:28:15;;;;;;;;;;;;;;;;;;5091767;28;1043;-66
2022/06/08 04:30:40;;;;;;;;;;;;;;;;;;5091756;28;868;-66
2022/06/08 04:33:05;;;;;;;;;;;;;;;;;;5091844;28;845;-66
2022/06/08 04:35:32;;;;;;;;;;;;;;;;;;5092066;28;1959;-66
2022/06/08 04:37:58;;;;;;;;;;;;;;;;;;5090566;28;1446;-66
2022/06/08 04:40:23;;;;;;;;;;;;;;;;;;5091798;28;904;-67
2022/06/08 04:42:49;;;;;;;;;;;;;;;;;;5090381;28;825;-66
2022/06/08 04:45:14;;;;;;;;;;;;;;;;;;5091911;28;844;-66
2022/06/08 04:47:39;;;;;;;;;;;;;;;;;;5091721;28;1023;-66
2022/06/08 04:50:05;;;;;;;;;;;;;;;;;;5091420;28;923;-66
2022/06/08 04:52:30;;;;;;;;;;;;;;;;;;5092110;28;1385;-66
2022/06/08 04:54:56;;;;;;;;;;;;;;;;;;5090001;28;868;-66
2022/06/08 04:57:21;;;;;;;;;;;;;;;;;;5091662;28;1973;-67
2022/06/08 04:59:46;;;;;;;;;;;;;;;;;;5109292;28;1151;-66
2022/06/08 05:02:42;;;;;;;;;;;;;;;;;;5090971;28;1332;-66
2022/06/08 05:04:57;;;;;;;;;;;;;;;;;;5111451;28;1208;-66
2022/06/08 05:07:22;;;;;;;;;;;;;;;;;;5110631;28;1058;-66
2022/06/08 05:09:47;;;;;;;;;;;;;;;;;;5110340;28;1006;-66
2022/06/08 05:12:13;;;;;;;;;;;;;;;;;;5111931;28;999;-67
2022/06/08 05:14:38;;;;;;;;;;;;;;;;;;5110475;28;994;-66
2022/06/08 05:17:04;;;;;;;;;;;;;;;;;;5111955;28;1978;-66
2022/06/08 05:19:29;;;;;;;;;;;;;;;;;;5110535;28;920;-66
2022/06/08 05:21:54;;;;;;;;;;;;;;;;;;5110536;28;916;-67
2022/06/08 05:24:19;;;;;;;;;;;;;;;;;;5112108;28;904;-66
2022/06/08 05:26:45;;;;;;;;;;;;;;;;;;5111303;28;817;-66
2022/06/08 05:29:10;;;;;;;;;;;;;;;;;;5111198;28;806;-66
2022/06/08 05:31:35;;;;;;;;;;;;;;;;;;5110570;28;1190;-66
2022/06/08 05:34:01;;;;;;;;;;;;;;;;;;5111354;28;820;-66
2022/06/08 05:36:27;;;;;;;;;;;;;;;;;;5111879;28;1914;-66
2022/06/08 05:38:52;;;;;;;;;;;;;;;;;;5109855;28;1217;-66
2022/06/08 05:41:17;;;;;;;;;;;;;;;;;;5111393;28;955;-66
2022/06/08 05:43:42;;;;;;;;;;;;;;;;;;5110013;28;1266;-66
2022/06/08 05:46:08;;;;;;;;;;;;;;;;;;5111760;28;831;-66
2022/06/08 05:48:33;;;;;;;;;;;;;;;;;;5111818;28;922;-66
2022/06/08 05:50:58;;;;;;;;;;;;;;;;;;5111280;28;879;-67
2022/06/08 05:53:23;;;;;;;;;;;;;;;;;;5111841;28;812;-66
2022/06/08 05:55:49;;;;;;;;;;;;;;;;;;5109685;28;1967;-66
2022/06/08 05:58:14;;;;;;;;;;;;;;;;;;5111782;28;832;-66
2022/06/08 06:00:40;;;;;;;;;;;;;;;;;;5111819;28;757;-66
2022/06/08 06:03:07;;;;;;;;;;;;;;;;;;5111092;28;1059;-66
2022/06/08 06:05:33;;;;;;;;;;;;;;;;;;5110312;28;1434;-66
2022/06/08 06:07:59;;;;;;;;;;;;;;;;;;5110858;28;879;-66
2022/06/08 06:10:26;;;;;;;;;;;;;;;;;;5111634;28;940;-66
2022/06/08 06:12:54;;;;;;;;;;;;;;;;;;5112908;28;1289;-66
2022/06/08 06:15:20;;;;;;;;;;;;;;;;;;5114717;28;1192;-66
2022/06/08 06:17:46;;;;;;;;;;;;;;;;;;5114083;28;1961;-66
2022/06/08 06:20:11;;;;;;;;;;;;;;;;;;5113240;28;1386;-66
2022/06/08 06:22:37;;;;;;;;;;;;;;;;;;5096221;28;1182;-66
2022/06/08 06:25:04;;;;;;;;;;;;;;;;;;5111964;28;1135;-67
2022/06/08 06:27:29;;;;;;;;;;;;;;;;;;5113973;28;1136;-66
2022/06/08 06:29:55;;;;;;;;;;;;;;;;;;5095658;28;1333;-66
2022/06/08 06:32:31;;;;;;;;;;;;;;;;;;5112886;28;821;-66
2022/06/08 06:34:58;;;;;;;;;;;;;;;;;;5113754;28;1002;-66
2022/06/08 06:37:24;;;;;;;;;;;;;;;;;;5113493;28;1910;-66
2022/06/08 06:39:49;;;;;;;;;;;;;;;;;;5112769;28;1267;-66
2022/06/08 06:42:16;;;;;;;;;;;;;;;;;;5115972;28;738;-65
2022/06/08 06:44:41;;;;;;;;;;;;;;;;;;5115155;28;1364;-65
2022/06/08 06:47:06;;;;;;;;;;;;;;;;;;5115372;28;1351;-65
2022/06/08 06:49:32;;;;;;;;;;;;;;;;;;5119061;28;1002;-66
2022/06/08 06:51:58;;;;;;;;;;;;;;;;;;5117513;28;821;-66
2022/06/08 06:54:23;;;;;;;;;;;;;;;;;;5118770;28;790;-66
2022/06/08 06:56:49;;;;;;;;;;;;;;;;;;5117041;28;1956;-66
2022/06/08 06:59:14;;;;;;;;;;;;;;;;;;5114797;28;981;-66
2022/06/08 07:01:41;;;;;;;;;;;;;;;;;;5116073;28;837;-66
2022/06/08 07:04:07;;;;;;;;;;;;;;;;;;5113559;28;1040;-66
2022/06/08 07:06:32;;;;;;;;;;;;;;;;;;5115556;28;904;-64
2022/06/08 07:09:00;;;;;;;;;;;;;;;;;;5115675;28;871;-66
2022/06/08 07:11:32;;;;;;;;;;;;;;;;;;5115544;28;1035;-66
2022/06/08 07:13:59;;;;;;;;;;;;;;;;;;5112835;28;1336;-66
2022/06/08 07:16:24;;;;;;;;;;;;;;;;;;5112415;28;1902;-66
2022/06/08 07:18:49;;;;;;;;;;;;;;;;;;5113659;28;794;-66
2022/06/08 07:21:15;;;;;;;;;;;;;;;;;;5095040;28;1171;-66
2022/06/08 07:23:41;;;;;;;;;;;;;;;;;;5114346;28;875;-66
2022/06/08 07:26:06;;;;;;;;;;;;;;;;;;5112573;28;1081;-67
2022/06/08 07:28:32;;;;;;;;;;;;;;;;;;5113775;28;951;-66
2022/06/08 07:30:57;;;;;;;;;;;;;;;;;;5111547;28;1329;-66
2022/06/08 07:33:22;;;;;;;;;;;;;;;;;;5113229;28;979;-66
2022/06/08 07:35:48;;;;;;;;;;;;;;;;;;5112735;28;1906;-66
2022/06/08 07:38:13;;;;;;;;;;;;;;;;;;5113246;28;827;-66
2022/06/08 07:40:38;;;;;;;;;;;;;;;;;;5112245;28;745;-66
2022/06/08 07:43:04;;;;;;;;;;;;;;;;;;5113215;27;816;-66
2022/06/08 07:45:29;;;;;;;;;;;;;;;;;;5112023;28;844;-67
2022/06/08 07:50:40;;;;;;;;;;;;;;;;;;5113463;28;644;-67
2022/06/08 07:53:06;;;;;;;;;;;;;;;;;;5111308;28;1269;-67
2022/06/08 07:55:31;;;;;;;;;;;;;;;;;;5112920;28;1002;-65
2022/06/08 07:57:57;;;;;;;;;;;;;;;;;;5112492;28;1966;-66
2022/06/08 08:00:22;;;;;;;;;;;;;;;;;;5110943;28;1294;-66
2022/06/08 08:02:47;;;;;;;;;;;;;;;;;;5112096;28;947;-66
2022/06/08 08:05:14;;;;;;;;;;;;;;;;;;5112625;28;722;-66
2022/06/08 08:07:40;;;;;;;;;;;;;;;;;;5112568;28;928;-66
2022/06/08 08:10:07;;;;;;;;;;;;;;;;;;5111016;28;853;-66
2022/06/08 08:12:32;;;;;;;;;;;;;;;;;;5112473;28;832;-66
2022/06/08 08:14:57;;;;;;;;;;;;;;;;;;5093622;28;1194;-66
2022/06/08 08:17:22;;;;;;;;;;;;;;;;;;5111651;28;1933;-66
2022/06/08 08:19:49;;;;;;;;;;;;;;;;;;5111880;27;1010;-66
2022/06/08 08:22:15;;;;;;;;;;;;;;;;;;5093363;28;1199;-66
2022/06/08 08:24:40;;;;;;;;;;;;;;;;;;5112520;28;879;-65
2022/06/08 08:27:06;;;;;;;;;;;;;;;;;;5110545;28;1030;-66
2022/06/08 08:29:31;;;;;;;;;;;;;;;;;;5112320;28;809;-65
2022/06/08 08:31:56;;;;;;;;;;;;;;;;;;5111424;28;789;-65
2022/06/08 08:34:21;;;;;;;;;;;;;;;;;;5111318;28;831;-66
2022/06/08 08:36:47;;;;;;;;;;;;;;;;;;5111914;28;1922;-66
2022/06/08 08:39:12;;;;;;;;;;;;;;;;;;5093158;28;1360;-66
2022/06/08 08:44:40;;;;;;;;;;;;;;;;;;5111795;28;659;-66
2022/06/08 08:47:10;;;;;;;;;;;;;;;;;;5111695;28;864;-66
2022/06/08 08:49:37;;;;;;;;;;;;;;;;;;5110429;28;1417;-66
2022/06/08 08:52:12;;;;;;;;;;;;;;;;;;5111796;28;907;-66
2022/06/08 08:54:39;;;;;;;;;;;;;;;;;;5112121;28;832;-66
2022/06/08 08:57:23;;;;;;;;;;;;;;;;;;5111571;28;1909;-66
2022/06/08 08:59:51;;;;;;;;;;;;;;;;;;5110207;28;1182;-66
2022/06/08 09:05:11;;;;;;;;;;;;;;;;;;5111904;28;627;-66
2022/06/08 09:07:36;;;;;;;;;;;;;;;;;;5110401;28;1172;-66
2022/06/08 09:10:02;;;;;;;;;;;;;;;;;;5111439;28;998;-66
2022/06/08 09:12:28;;;;;;;;;;;;;;;;;;5111464;28;891;-66
2022/06/08 09:14:59;;;;;;;;;;;;;;;;;;5109411;28;1174;-66
2022/06/08 09:17:32;;;;;;;;;;;;;;;;;;5110600;28;1909;-66
2022/06/08 09:19:58;;;;;;;;;;;;;;;;;;5111398;28;903;-66
2022/06/08 09:22:26;;;;;;;;;;;;;;;;;;5109483;28;868;-66
2022/06/08 09:24:53;;;;;;;;;;;;;;;;;;5110818;28;796;-67
2022/06/08 09:27:22;;;;;;;;;;;;;;;;;;5111058;28;915;-66
2022/06/08 09:29:53;;;;;;;;;;;;;;;;;;5109408;28;1217;-66
2022/06/08 09:32:24;;;;;;;;;;;;;;;;;;5110958;28;824;-66
2022/06/08 09:34:54;;;;;;;;;;;;;;;;;;5110838;28;1050;-66
2022/06/08 09:37:26;;;;;;;;;;;;;;;;;;5110948;28;1902;-66
2022/06/08 09:39:53;;;;;;;;;;;;;;;;;;5111231;28;844;-66
2022/06/08 09:42:29;;;;;;;;;;;;;;;;;;5109606;28;1343;-67
2022/06/08 09:45:00;;;;;;;;;;;;;;;;;;5112296;28;940;-66
2022/06/08 09:53:35;;;;;;;;;;;;;;;;;;5115063;28;643;-67
2022/06/08 09:56:19;;;;;;;;;;;;;;;;;;5113140;28;1906;-65
2022/06/08 09:58:57;;;;;;;;;;;;;;;;;;5114690;28;1068;-66
2022/06/08 10:01:22;;;;;;;;;;;;;;;;;;5114594;28;887;-66
2022/06/08 10:03:50;;;;;;;;;;;;;;;;;;5115295;28;961;-66
2022/06/08 10:06:21;;;;;;;;;;;;;;;;;;5114650;28;993;-66
2022/06/08 10:08:59;;;;;;;;;;;;;;;;;;5114650;28;864;-66
2022/06/08 10:11:34;;;;;;;;;;;;;;;;;;5114005;27;888;-65
2022/06/08 10:14:20;;;;;;;;;;;;;;;;;;5114073;28;836;-66
2022/06/08 10:17:03;;;;;;;;;;;;;;;;;;5106202;28;1897;-66
2022/06/08 10:19:47;;;;;;;;;;;;;;;;;;5112580;28;1384;-66
2022/06/08 10:22:13;;;;;;;;;;;;;;;;;;5112715;28;1238;-65
2022/06/08 10:25:10;;;;;;;;;;;;;;;;;;5112995;28;1310;-66
2022/06/08 10:27:41;;;;;;;;;;;;;;;;;;5090844;28;1273;-66
2022/06/08 10:30:10;;;;;;;;;;;;;;;;;;5113380;28;1181;-66
2022/06/08 10:32:39;;;;;;;;;;;;;;;;;;5114533;28;831;-66
2022/06/08 10:35:16;;;;;;;;;;;;;;;;;;5114287;28;769;-67
2022/06/08 10:37:41;;;;;;;;;;;;;;;;;;5114569;28;1976;-66
2022/06/08 10:40:08;;;;;;;;;;;;;;;;;;5095931;28;1696;-67
2022/06/08 10:42:39;;;;;;;;;;;;;;;;;;5112805;28;1237;-67
2022/06/08 10:45:19;;;;;;;;;;;;;;;;;;5113013;28;1251;-66
2022/06/08 10:47:52;;;;;;;;;;;;;;;;;;5112683;28;1269;-66
2022/06/08 10:50:22;;;;;;;;;;;;;;;;;;5112800;28;1515;-66
2022/06/08 10:52:49;;;;;;;;;;;;;;;;;;5114097;28;909;-66
2022/06/08 10:55:14;;;;;;;;;;;;;;;;;;5112452;28;1199;-66
2022/06/08 10:57:42;;;;;;;;;;;;;;;;;;5113172;28;1902;-66
2022/06/08 11:00:16;;;;;;;;;;;;;;;;;;5112049;28;1356;-66
2022/06/08 11:02:43;;;;;;;;;;;;;;;;;;5111729;28;1209;-66
2022/06/08 11:05:15;;;;;;;;;;;;;;;;;;5113435;28;896;-66
2022/06/08 11:07:59;;;;;;;;;;;;;;;;;;5112506;28;1186;-66
2022/06/08 11:10:52;;;;;;;;;;;;;;;;;;5113388;28;1006;-66
2022/06/08 11:13:24;;;;;;;;;;;;;;;;;;5113776;27;820;-66
2022/06/08 11:15:52;;;;;;;;;;;;;;;;;;5111800;28;1906;-67
2022/06/08 11:18:24;;;;;;;;;;;;;;;;;;5111731;28;1202;-66
2022/06/08 11:21:13;;;;;;;;;;;;;;;;;;5113040;28;1041;-66
2022/06/08 11:23:44;;;;;;;;;;;;;;;;;;5093451;27;1166;-67
2022/06/08 11:26:23;;;;;;;;;;;;;;;;;;5113301;28;777;-67
2022/06/08 11:28:56;;;;;;;;;;;;;;;;;;5112916;28;878;-67
2022/06/08 11:31:28;;;;;;;;;;;;;;;;;;5112994;28;1226;-67
2022/06/08 11:34:12;;;;;;;;;;;;;;;;;;5111037;28;1436;-67
2022/06/08 11:36:53;;;;;;;;;;;;;;;;;;5112931;28;1961;-67
2022/06/08 11:39:21;;;;;;;;;;;;;;;;;;5112973;27;863;-67
2022/06/08 11:41:57;;;;;;;;;;;;;;;;;;5111018;28;1302;-67
2022/06/08 11:44:26;;;;;;;;;;;;;;;;;;5113211;28;1255;-67
2022/06/08 11:47:01;;;;;;;;;;;;;;;;;;5112386;28;836;-67
2022/06/08 11:49:27;;;;;;;;;;;;;;;;;;5112866;28;906;-66
2022/06/08 11:51:52;;;;;;;;;;;;;;;;;;5110826;28;1392;-67
2022/06/08 11:54:25;;;;;;;;;;;;;;;;;;5112469;28;989;-67
2022/06/08 11:56:56;;;;;;;;;;;;;;;;;;5111944;28;1893;-66
2022/06/08 11:59:22;;;;;;;;;;;;;;;;;;5112516;28;1045;-67
2022/06/08 12:01:53;;;;;;;;;;;;;;;;;;5110893;28;891;-67
2022/06/08 12:04:22;;;;;;;;;;;;;;;;;;5112478;28;832;-67
2022/06/08 12:06:48;;;;;;;;;;;;;;;;;;5111828;28;881;-67
2022/06/08 12:09:15;;;;;;;;;;;;;;;;;;5111437;28;1230;-66
2022/06/08 12:11:43;;;;;;;;;;;;;;;;;;5112786;28;1013;-67
2022/06/08 12:14:17;;;;;;;;;;;;;;;;;;5113177;28;820;-66
2022/06/08 12:16:55;;;;;;;;;;;;;;;;;;5111105;28;1953;-67
2022/06/08 12:19:21;;;;;;;;;;;;;;;;;;5112778;28;891;-67
2022/06/08 12:21:47;;;;;;;;;;;;;;;;;;5112580;28;831;-67
2022/06/08 12:24:13;;;;;;;;;;;;;;;;;;5113299;27;1009;-67
2022/06/08 12:26:38;;;;;;;;;;;;;;;;;;5112792;28;1079;-66
2022/06/08 12:29:22;;;;;;;;;;;;;;;;;;5112276;28;781;-67
2022/06/08 12:31:58;;;;;;;;;;;;;;;;;;5111851;28;622;-66
2022/06/08 12:34:24;;;;;;;;;;;;;;;;;;5110727;28;1181;-66
2022/06/08 12:36:49;;;;;;;;;;;;;;;;;;5111531;28;1914;-66
2022/06/08 12:39:18;;;;;;;;;;;;;;;;;;5110683;28;919;-66
2022/06/08 12:41:43;;;;;;;;;;;;;;;;;;5111947;28;828;-67
2022/06/08 12:44:16;;;;;;;;;;;;;;;;;;5110544;28;1480;-66
2022/06/08 12:46:47;;;;;;;;;;;;;;;;;;5111906;28;856;-66
2022/06/08 12:49:15;;;;;;;;;;;;;;;;;;5111772;28;899;-66
2022/06/08 12:51:40;;;;;;;;;;;;;;;;;;5111970;28;872;-66
2022/06/08 12:54:11;;;;;;;;;;;;;;;;;;5111912;28;828;-66
2022/06/08 12:56:36;;;;;;;;;;;;;;;;;;5111303;28;1894;-66
2022/06/08 12:59:02;;;;;;;;;;;;;;;;;;5109018;28;892;-66
2022/06/08 13:01:29;;;;;;;;;;;;;;;;;;5110498;28;769;-66
2022/06/08 13:03:55;;;;;;;;;;;;;;;;;;5111183;28;859;-66
2022/06/08 13:06:20;;;;;;;;;;;;;;;;;;5110388;28;1221;-66
2022/06/08 13:08:48;;;;;;;;;;;;;;;;;;5111487;28;860;-66
2022/06/08 13:11:16;;;;;;;;;;;;;;;;;;5093658;28;1201;-66
2022/06/08 13:13:42;;;;;;;;;;;;;;;;;;5111808;28;883;-64
2022/06/08 13:16:13;;;;;;;;;;;;;;;;;;5110158;28;1919;-66
2022/06/08 13:18:38;;;;;;;;;;;;;;;;;;5114168;28;1109;-66
2022/06/08 13:21:07;;;;;;;;;;;;;;;;;;5118388;27;1065;-66
2022/06/08 13:23:33;;;;;;;;;;;;;;;;;;5118630;27;835;-66
2022/06/08 13:25:59;;;;;;;;;;;;;;;;;;5117823;27;808;-66
2022/06/08 13:28:25;;;;;;;;;;;;;;;;;;5118081;27;892;-66
2022/06/08 13:30:52;;;;;;;;;;;;;;;;;;5116246;28;1233;-66
2022/06/08 13:36:23;;;;;;;;;;;;;;;;;;5118331;28;1890;-65
2022/06/08 13:38:50;;;;;;;;;;;;;;;;;;5116518;28;1369;-66
2022/06/08 13:41:16;;;;;;;;;;;;;;;;;;5118414;27;1078;-66
2022/06/08 13:43:41;;;;;;;;;;;;;;;;;;5116969;28;848;-66
2022/06/08 13:46:13;;;;;;;;;;;;;;;;;;5116667;28;1334;-66
2022/06/08 13:48:39;;;;;;;;;;;;;;;;;;5118659;27;844;-65
2022/06/08 13:51:04;;;;;;;;;;;;;;;;;;5117824;27;895;-65
2022/06/08 13:53:30;;;;;;;;;;;;;;;;;;5118478;27;828;-66
2022/06/08 13:55:56;;;;;;;;;;;;;;;;;;5116588;28;1922;-66
2022/06/08 13:58:22;;;;;;;;;;;;;;;;;;5118479;27;809;-66
2022/06/08 14:00:50;;;;;;;;;;;;;;;;;;5117651;27;918;-66
2022/06/08 14:03:21;;;;;;;;;;;;;;;;;;5118360;27;974;-66
2022/06/08 14:14:02;;;;;;;;;;;;;;;;;;5117293;28;716;-66
2022/06/08 14:16:27;;;;;;;;;;;;;;;;;;5118372;27;1965;-65
2022/06/08 14:18:54;;;;;;;;;;;;;;;;;;5117460;27;821;-66
2022/06/08 14:21:19;;;;;;;;;;;;;;;;;;5117497;27;1281;-65
2022/06/08 14:23:47;;;;;;;;;;;;;;;;;;5117822;27;1014;-64
2022/06/08 14:26:17;;;;;;;;;;;;;;;;;;5115653;28;1253;-65
2022/06/08 14:28:46;;;;;;;;;;;;;;;;;;5117424;27;836;-65
2022/06/08 14:31:21;;;;;;;;;;;;;;;;;;5114504;27;829;-65
2022/06/08 14:33:47;;;;;;;;;;;;;;;;;;5115104;28;903;-66
2022/06/08 14:36:13;;;;;;;;;;;;;;;;;;5113569;28;1951;-66
2022/06/08 14:38:39;;;;;;;;;;;;;;;;;;5110670;28;1167;-66
2022/06/08 14:41:05;;;;;;;;;;;;;;;;;;5100122;28;1128;-66
2022/06/08 14:43:30;;;;;;;;;;;;;;;;;;5113423;28;1257;-66
2022/06/08 14:45:56;;;;;;;;;;;;;;;;;;5112136;28;1013;-66
2022/06/08 14:48:41;;;;;;;;;;;;;;;;;;5114179;28;836;-66
2022/06/08 14:51:07;;;;;;;;;;;;;;;;;;5113747;28;950;-66
2022/06/08 14:53:33;;;;;;;;;;;;;;;;;;5112857;28;919;-66
2022/06/08 14:58:44;;;;;;;;;;;;;;;;;;5085756;28;2017;-66
2022/06/08 15:01:14;;;;;;;;;;;;;;;;;;5092491;28;1672;-66
2022/06/08 15:03:39;;;;;;;;;;;;;;;;;;5093303;28;1255;-66
2022/06/08 15:06:09;;;;;;;;;;;;;;;;;;5092366;28;1655;-66
2022/06/08 15:08:35;;;;;;;;;;;;;;;;;;5089168;28;2183;-66
2022/06/08 15:13:46;;;;;;;;;;;;;;;;;;5067204;28;2282;-66
2022/06/08 15:16:14;;;;;;;;;;;;;;;;;;5090967;28;1886;-66
2022/06/08 15:18:39;;;;;;;;;;;;;;;;;;5093099;28;1494;-66
2022/06/08 15:21:05;;;;;;;;;;;;;;;;;;5091004;28;2015;-66
2022/06/08 15:23:31;;;;;;;;;;;;;;;;;;5092601;28;1659;-66
2022/06/08 15:25:56;;;;;;;;;;;;;;;;;;5092613;28;1568;-65
2022/06/08 15:28:24;;;;;;;;;;;;;;;;;;5087325;28;1334;-66
2022/06/08 15:30:50;;;;;;;;;;;;;;;;;;5092792;28;1365;-66
2022/06/08 15:33:16;;;;;;;;;;;;;;;;;;5091636;28;1209;-65
2022/06/08 15:35:52;;;;;;;;;;;;;;;;;;5091095;28;1344;-66
2022/06/08 15:38:18;;;;;;;;;;;;;;;;;;5088856;28;2005;-66
2022/06/08 15:40:43;;;;;;;;;;;;;;;;;;5092255;28;1667;-66
2022/06/08 15:43:11;;;;;;;;;;;;;;;;;;5084449;28;2034;-67
2022/06/08 15:45:36;;;;;;;;;;;;;;;;;;5095258;28;1945;-66
2022/06/08 15:48:04;;;;;;;;;;;;;;;;;;5072662;28;1016;-67
2022/06/08 15:50:55;;;;;;;;;;;;;;;;;;5082538;28;1871;-66
2022/06/08 15:53:27;;;;;;;;;;;;;;;;;;5091380;28;1174;-67
2022/06/08 15:55:53;;;;;;;;;;;;;;;;;;5091925;28;1909;-66
2022/06/08 15:58:23;;;;;;;;;;;;;;;;;;5090876;28;1183;-66
2022/06/08 16:00:49;;;;;;;;;;;;;;;;;;5110183;28;1143;-66
2022/06/08 16:03:15;;;;;;;;;;;;;;;;;;5109922;28;1201;-66
2022/06/08 16:05:40;;;;;;;;;;;;;;;;;;5112533;28;1097;-66
2022/06/08 16:08:06;;;;;;;;;;;;;;;;;;5112433;28;871;-66
2022/06/08 16:10:32;;;;;;;;;;;;;;;;;;5110547;28;1213;-66
2022/06/08 16:12:58;;;;;;;;;;;;;;;;;;5111045;28;832;-67
2022/06/08 16:15:23;;;;;;;;;;;;;;;;;;5112288;28;915;-66
2022/06/08 16:17:49;;;;;;;;;;;;;;;;;;5093436;28;1976;-66
2022/06/08 16:20:17;;;;;;;;;;;;;;;;;;5112453;28;804;-66
2022/06/08 16:22:43;;;;;;;;;;;;;;;;;;5111388;28;1351;-66
2022/06/08 16:25:09;;;;;;;;;;;;;;;;;;5112385;28;777;-66
2022/06/08 16:27:35;;;;;;;;;;;;;;;;;;5112258;28;816;-66
2022/06/08 16:30:01;;;;;;;;;;;;;;;;;;5110648;28;1324;-66
2022/06/08 16:32:27;;;;;;;;;;;;;;;;;;5110969;28;1249;-67
2022/06/08 16:34:53;;;;;;;;;;;;;;;;;;5110806;28;1002;-67
2022/06/08 16:37:19;;;;;;;;;;;;;;;;;;5093009;28;1981;-67
2022/06/08 16:39:45;;;;;;;;;;;;;;;;;;5112637;28;824;-67
2022/06/08 16:42:10;;;;;;;;;;;;;;;;;;5111005;28;1291;-66
2022/06/08 16:44:35;;;;;;;;;;;;;;;;;;5112440;28;840;-68
2022/06/08 16:47:01;;;;;;;;;;;;;;;;;;5112352;28;1065;-67
2022/06/08 16:49:28;;;;;;;;;;;;;;;;;;5110632;28;793;-67
2022/06/08 16:51:53;;;;;;;;;;;;;;;;;;5112629;28;987;-66
2022/06/08 16:54:18;;;;;;;;;;;;;;;;;;5110402;28;1265;-67
2022/06/08 16:59:36;;;;;;;;;;;;;;;;;;5111330;28;626;-67
2022/06/08 17:02:02;;;;;;;;;;;;;;;;;;5112255;28;939;-66
2022/06/08 17:04:28;;;;;;;;;;;;;;;;;;5112010;28;796;-67
2022/06/08 17:06:53;;;;;;;;;;;;;;;;;;5112255;28;852;-67
2022/06/08 17:09:18;;;;;;;;;;;;;;;;;;5110963;28;824;-67
2022/06/08 17:11:47;;;;;;;;;;;;;;;;;;5112741;28;920;-67
2022/06/08 17:14:16;;;;;;;;;;;;;;;;;;5112219;28;891;-67
2022/06/08 17:16:42;;;;;;;;;;;;;;;;;;5110331;28;1945;-68
2022/06/08 17:19:08;;;;;;;;;;;;;;;;;;5111962;28;844;-67
2022/06/08 17:21:34;;;;;;;;;;;;;;;;;;5111236;28;982;-67
2022/06/08 17:23:59;;;;;;;;;;;;;;;;;;5111365;28;986;-67
2022/06/08 17:26:25;;;;;;;;;;;;;;;;;;5110076;28;1193;-67
2022/06/08 17:28:51;;;;;;;;;;;;;;;;;;5112087;28;836;-67
2022/06/08 17:31:16;;;;;;;;;;;;;;;;;;5111420;28;813;-67
2022/06/08 17:33:42;;;;;;;;;;;;;;;;;;5110603;28;1292;-67
2022/06/08 17:36:08;;;;;;;;;;;;;;;;;;5111988;28;1890;-67
2022/06/08 17:38:33;;;;;;;;;;;;;;;;;;5111643;28;856;-67
2022/06/08 17:40:58;;;;;;;;;;;;;;;;;;5111489;28;947;-67
2022/06/08 17:43:24;;;;;;;;;;;;;;;;;;5109898;28;919;-67
2022/06/08 17:45:49;;;;;;;;;;;;;;;;;;5110284;28;1453;-67
2022/06/08 17:48:15;;;;;;;;;;;;;;;;;;5109853;28;1307;-67
2022/06/08 17:50:41;;;;;;;;;;;;;;;;;;5109784;28;1224;-67
2022/06/08 17:53:06;;;;;;;;;;;;;;;;;;5110210;28;1527;-67
2022/06/08 17:55:32;;;;;;;;;;;;;;;;;;5111672;28;937;-67